createdAt,value
2023-03-18T00:00:32.666Z,2.45
2023-03-18T00:03:00.242Z,2.83
2023-03-18T00:05:27.328Z,2.35
2023-03-18T00:07:54.307Z,2.40
2023-03-18T00:10:21.315Z,2.30
2023-03-18T00:12:48.320Z,2.20
2023-03-18T00:15:18.091Z,2.60
2023-03-18T00:17:46.825Z,2.78
2023-03-18T00:20:16.906Z,2.83
2023-03-18T00:22:45.223Z,2.25
2023-03-18T00:25:15.319Z,2.85
2023-03-18T00:27:42.599Z,2.42
2023-03-18T00:30:12.377Z,2.47
2023-03-18T00:32:39.588Z,2.55
2023-03-18T00:35:07.259Z,2.30
2023-03-18T00:37:36.449Z,2.70
2023-03-18T00:40:10.517Z,2.60
2023-03-18T00:42:42.570Z,2.60
2023-03-18T00:45:11.808Z,2.60
2023-03-18T00:47:38.862Z,2.47
2023-03-18T00:50:08.371Z,2.53
2023-03-18T00:52:36.144Z,2.53
2023-03-18T00:55:03.567Z,2.28
2023-03-18T00:57:31.126Z,2.42
2023-03-18T00:59:59.229Z,2.67
2023-03-18T01:02:28.907Z,2.65
2023-03-18T01:04:57.055Z,2.70
2023-03-18T01:07:24.927Z,2.17
2023-03-18T01:09:52.117Z,2.42
2023-03-18T01:12:19.236Z,2.40
2023-03-18T01:14:46.863Z,2.25
2023-03-18T01:17:14.461Z,2.40
2023-03-18T01:19:42.369Z,2.58
2023-03-18T01:22:09.489Z,1.80
2023-03-18T01:24:42.649Z,2.45
2023-03-18T01:27:10.687Z,2.30
2023-03-18T01:29:39.528Z,2.42
2023-03-18T01:32:13.124Z,2.55
2023-03-18T01:34:41.398Z,2.35
2023-03-18T01:37:08.499Z,2.40
2023-03-18T01:39:38.053Z,2.60
2023-03-18T01:42:08.709Z,1.92
2023-03-18T01:44:36.010Z,2.75
2023-03-18T01:47:03.386Z,2.55
2023-03-18T01:49:39.321Z,2.17
2023-03-18T01:52:25.213Z,2.50
2023-03-18T01:55:05.806Z,2.15
2023-03-18T01:57:33.998Z,1.92
2023-03-18T02:00:01.959Z,2.17
2023-03-18T02:02:30.664Z,2.40
2023-03-18T02:05:05.986Z,2.25
2023-03-18T02:07:35.850Z,2.22
2023-03-18T02:10:14.435Z,2.47
2023-03-18T02:12:46.825Z,1.95
2023-03-18T02:15:24.109Z,1.85
2023-03-18T02:18:13.339Z,2.08
2023-03-18T02:21:04.184Z,2.15
2023-03-18T02:24:13.797Z,2.38
2023-03-18T02:27:15.905Z,2.38
2023-03-18T02:29:43.961Z,2.28
2023-03-18T02:32:17.986Z,2.25
2023-03-18T02:34:45.818Z,2.60
2023-03-18T02:37:13.147Z,2.28
2023-03-18T02:39:42.174Z,2.20
2023-03-18T02:42:16.818Z,2.47
2023-03-18T02:44:50.008Z,2.08
2023-03-18T02:47:38.676Z,2.40
2023-03-18T02:50:06.070Z,2.42
2023-03-18T02:52:33.649Z,2.47
2023-03-18T02:55:01.655Z,1.98
2023-03-18T02:57:29.676Z,1.98
2023-03-18T02:59:57.661Z,2.25
2023-03-18T03:02:24.823Z,2.20
2023-03-18T03:04:51.858Z,1.83
2023-03-18T03:07:20.125Z,2.13
2023-03-18T03:09:51.520Z,1.92
2023-03-18T03:12:19.866Z,2.13
2023-03-18T03:14:51.936Z,2.25
2023-03-18T03:17:19.832Z,1.90
2023-03-18T03:19:46.825Z,2.10
2023-03-18T03:22:17.270Z,1.95
2023-03-18T03:24:45.168Z,1.77
2023-03-18T03:27:14.250Z,2.00
2023-03-18T03:29:41.211Z,1.63
2023-03-18T03:32:08.298Z,1.70
2023-03-18T03:34:35.390Z,1.98
2023-03-18T03:37:02.522Z,1.90
2023-03-18T03:39:29.631Z,1.80
2023-03-18T03:41:56.837Z,1.90
2023-03-18T03:44:24.317Z,1.67
2023-03-18T03:46:51.515Z,1.90
2023-03-18T03:49:18.620Z,1.70
2023-03-18T03:51:45.580Z,1.42
2023-03-18T03:54:13.215Z,2.00
2023-03-18T03:56:40.912Z,1.90
2023-03-18T03:59:08.213Z,1.60
2023-03-18T04:01:55.120Z,1.50
2023-03-18T04:04:22.539Z,1.73
2023-03-18T04:06:49.596Z,1.58
2023-03-18T04:09:17.184Z,1.35
2023-03-18T04:11:45.510Z,1.60
2023-03-18T04:14:12.831Z,1.20
2023-03-18T04:16:40.490Z,1.73
2023-03-18T04:19:09.991Z,1.50
2023-03-18T04:21:37.167Z,1.70
2023-03-18T04:24:04.757Z,1.42
2023-03-18T04:26:32.862Z,1.40
2023-03-18T04:29:03.592Z,1.50
2023-03-18T04:31:31.862Z,1.10
2023-03-18T04:33:59.920Z,1.13
2023-03-18T04:36:28.318Z,1.20
2023-03-18T04:38:56.923Z,1.20
2023-03-18T04:41:24.576Z,1.20
2023-03-18T04:43:52.663Z,1.30
2023-03-18T04:46:20.938Z,1.20
2023-03-18T04:48:48.996Z,1.30
2023-03-18T04:51:15.947Z,1.40
2023-03-18T04:53:43.630Z,1.40
2023-03-18T04:56:11.603Z,1.40
2023-03-18T04:58:46.486Z,1.60
2023-03-18T05:01:18.932Z,1.30
2023-03-18T05:03:46.252Z,1.45
2023-03-18T05:06:29.927Z,1.42
2023-03-18T05:09:16.061Z,1.27
2023-03-18T05:11:44.910Z,1.25
2023-03-18T05:14:20.303Z,1.20
2023-03-18T05:16:49.201Z,1.05
2023-03-18T05:19:17.246Z,1.42
2023-03-18T05:21:55.378Z,1.50
2023-03-18T05:24:22.773Z,1.20
2023-03-18T05:26:50.485Z,1.25
2023-03-18T05:29:21.084Z,1.10
2023-03-18T05:32:10.125Z,1.27
2023-03-18T05:34:39.605Z,1.33
2023-03-18T05:37:11.082Z,1.07
2023-03-18T05:39:44.726Z,1.05
2023-03-18T05:42:14.310Z,1.17
2023-03-18T05:44:42.592Z,1.10
2023-03-18T05:47:11.364Z,1.10
2023-03-18T05:49:58.610Z,1.30
2023-03-18T05:52:26.970Z,1.48
2023-03-18T05:54:56.725Z,1.30
2023-03-18T05:57:28.532Z,1.52
2023-03-18T06:00:00.731Z,1.50
2023-03-18T06:02:30.377Z,1.58
2023-03-18T06:04:58.334Z,1.38
2023-03-18T06:07:25.292Z,1.23
2023-03-18T06:09:53.457Z,1.17
2023-03-18T06:12:22.963Z,1.20
2023-03-18T06:14:50.572Z,1.30
2023-03-18T06:17:17.722Z,1.17
2023-03-18T06:19:45.755Z,1.23
2023-03-18T06:22:12.964Z,1.05
2023-03-18T06:24:39.923Z,1.23
2023-03-18T06:27:07.508Z,1.00
2023-03-18T06:29:36.804Z,1.00
2023-03-18T06:32:10.373Z,1.25
2023-03-18T06:34:38.896Z,1.23
2023-03-18T06:37:06.666Z,1.20
2023-03-18T06:39:35.464Z,1.08
2023-03-18T06:42:05.663Z,1.08
2023-03-18T06:44:37.329Z,1.02
2023-03-18T06:47:18.932Z,1.63
2023-03-18T06:49:52.741Z,1.10
2023-03-18T06:52:27.521Z,1.45
2023-03-18T06:54:58.910Z,1.25
2023-03-18T06:57:26.958Z,1.13
2023-03-18T06:59:53.884Z,1.02
2023-03-18T07:02:23.452Z,1.00
2023-03-18T07:04:51.401Z,1.23
2023-03-18T07:07:19.193Z,1.30
2023-03-18T07:09:46.200Z,1.98
2023-03-18T07:12:14.408Z,3.97
2023-03-18T07:14:42.562Z,4.75
2023-03-18T07:17:12.671Z,3.70
2023-03-18T07:19:41.798Z,3.00
2023-03-18T07:22:09.030Z,2.13
2023-03-18T07:24:36.007Z,1.90
2023-03-18T07:27:04.485Z,1.33
2023-03-18T07:29:33.620Z,1.15
2023-03-18T07:32:01.693Z,0.93
2023-03-18T07:34:28.801Z,1.10
2023-03-18T07:36:56.338Z,1.00
2023-03-18T07:39:23.411Z,1.00
2023-03-18T07:41:51.563Z,1.25
2023-03-18T07:44:22.164Z,1.30
2023-03-18T07:46:49.234Z,1.17
2023-03-18T07:49:16.199Z,1.30
2023-03-18T07:51:43.405Z,0.98
2023-03-18T07:54:10.948Z,0.98
2023-03-18T07:56:37.917Z,1.33
2023-03-18T07:59:04.884Z,1.05
2023-03-18T08:01:32.984Z,0.98
2023-03-18T08:04:00.333Z,1.05
2023-03-18T08:06:27.359Z,1.15
2023-03-18T08:08:54.278Z,1.10
2023-03-18T08:11:21.208Z,1.55
2023-03-18T08:13:48.165Z,1.40
2023-03-18T08:16:16.435Z,0.85
2023-03-18T08:18:43.377Z,1.20
2023-03-18T08:21:10.638Z,1.27
2023-03-18T08:23:38.543Z,1.40
2023-03-18T08:26:05.590Z,0.98
2023-03-18T08:28:32.541Z,1.02
2023-03-18T08:30:59.825Z,1.40
2023-03-18T08:33:28.195Z,1.35
2023-03-18T08:35:57.181Z,1.40
2023-03-18T08:38:25.177Z,1.55
2023-03-18T08:40:52.233Z,1.30
2023-03-18T08:43:28.559Z,1.48
2023-03-18T08:45:59.876Z,1.25
2023-03-18T08:48:29.177Z,1.23
2023-03-18T08:50:56.414Z,1.30
2023-03-18T08:53:23.829Z,1.55
2023-03-18T08:56:01.333Z,1.40
2023-03-18T08:58:37.097Z,1.50
2023-03-18T09:01:11.935Z,1.23
2023-03-18T09:03:42.275Z,1.38
2023-03-18T09:06:13.091Z,1.23
2023-03-18T09:08:45.059Z,1.30
2023-03-18T09:11:15.124Z,1.20
2023-03-18T09:13:44.806Z,1.08
2023-03-18T09:16:14.933Z,0.98
2023-03-18T09:18:48.694Z,0.90
2023-03-18T09:21:20.738Z,1.48
2023-03-18T09:23:52.433Z,1.42
2023-03-18T09:26:20.768Z,1.38
2023-03-18T09:28:47.806Z,1.02
2023-03-18T09:31:15.482Z,1.50
2023-03-18T09:33:43.378Z,1.00
2023-03-18T09:36:10.751Z,1.20
2023-03-18T09:38:37.760Z,0.88
2023-03-18T09:41:38.584Z,1.15
2023-03-18T09:44:24.305Z,1.17
2023-03-18T09:47:22.251Z,1.17
2023-03-18T09:50:24.146Z,1.27
2023-03-18T09:53:04.070Z,0.90
2023-03-18T09:55:48.998Z,0.77
2023-03-18T09:58:33.940Z,1.23
2023-03-18T10:01:10.881Z,1.08
2023-03-18T10:04:21.388Z,0.93
2023-03-18T10:06:54.773Z,1.13
2023-03-18T10:09:31.769Z,0.95
2023-03-18T10:12:33.695Z,0.90
2023-03-18T10:15:30.490Z,1.00
2023-03-18T10:18:12.652Z,0.90
2023-03-18T10:20:57.194Z,1.00
2023-03-18T10:23:53.881Z,0.85
2023-03-18T10:26:46.033Z,0.98
2023-03-18T10:29:40.683Z,0.93
2023-03-18T10:32:50.595Z,1.20
2023-03-18T10:35:36.628Z,0.90
2023-03-18T10:38:24.078Z,0.88
2023-03-18T10:40:52.762Z,0.90
2023-03-18T10:43:25.105Z,0.93
2023-03-18T10:46:04.748Z,1.00
2023-03-18T10:48:50.121Z,0.90
2023-03-18T10:51:33.132Z,0.95
2023-03-18T10:54:22.674Z,0.90
2023-03-18T10:56:49.701Z,0.95
2023-03-18T10:59:20.415Z,0.77
2023-03-18T11:04:28.383Z,1.10
2023-03-18T11:07:00.553Z,0.90
2023-03-18T11:09:39.375Z,0.95
2023-03-18T11:12:18.996Z,0.90
2023-03-18T11:14:50.679Z,1.00
2023-03-18T11:17:35.219Z,1.38
2023-03-18T11:20:24.232Z,0.90
2023-03-18T11:22:55.287Z,0.77
2023-03-18T11:25:30.799Z,1.42
2023-03-18T11:28:03.692Z,0.82
2023-03-18T11:30:46.086Z,0.68
2023-03-18T11:33:20.215Z,1.00
2023-03-18T11:36:09.614Z,0.70
2023-03-18T11:38:37.787Z,1.10
2023-03-18T11:41:16.908Z,1.00
2023-03-18T11:44:16.109Z,0.90
2023-03-18T11:47:01.201Z,1.00
2023-03-18T11:49:29.578Z,0.95
2023-03-18T11:52:28.134Z,1.30
2023-03-18T11:55:24.392Z,0.95
2023-03-18T11:58:18.198Z,0.85
2023-03-18T12:01:17.636Z,1.02
2023-03-18T12:04:27.024Z,0.90
2023-03-18T12:07:15.353Z,0.85
2023-03-18T12:10:25.925Z,0.90
2023-03-18T12:13:30.360Z,0.70
2023-03-18T12:16:33.371Z,1.80
2023-03-18T12:19:28.676Z,0.85
2023-03-18T12:22:24.773Z,1.10
2023-03-18T12:25:30.405Z,0.70
2023-03-18T12:28:21.945Z,1.00
2023-03-18T12:31:06.510Z,0.90
2023-03-18T12:33:57.438Z,1.10
2023-03-18T12:36:44.465Z,0.90
2023-03-18T12:40:21.290Z,0.85
2023-03-18T12:43:38.106Z,1.08
2023-03-18T12:46:18.853Z,0.55
2023-03-18T12:49:13.068Z,1.50
2023-03-18T12:52:11.828Z,1.40
2023-03-18T12:54:50.970Z,1.08
2023-03-18T12:57:45.283Z,0.88
2023-03-18T13:00:31.660Z,0.65
2023-03-18T13:03:06.866Z,1.27
2023-03-18T13:05:52.318Z,1.75
2023-03-18T13:08:45.690Z,1.25
2023-03-18T13:11:50.659Z,1.30
2023-03-18T13:14:39.259Z,0.80
2023-03-18T13:17:20.535Z,0.70
2023-03-18T13:19:47.762Z,0.70
2023-03-18T13:22:48.514Z,0.65
2023-03-18T13:25:59.502Z,0.70
2023-03-18T13:28:49.095Z,1.00
2023-03-18T13:31:33.003Z,0.70
2023-03-18T13:34:37.160Z,1.00
2023-03-18T13:37:27.745Z,0.80
2023-03-18T13:40:21.609Z,0.90
2023-03-18T13:42:50.571Z,0.73
2023-03-18T13:45:37.648Z,0.70
2023-03-18T13:48:16.341Z,0.80
2023-03-18T13:50:50.358Z,0.82
2023-03-18T13:53:34.445Z,0.82
2023-03-18T13:56:06.544Z,1.08
2023-03-18T13:59:06.860Z,0.80
2023-03-18T14:01:47.612Z,0.75
2023-03-18T14:04:31.314Z,0.85
2023-03-18T14:07:17.728Z,0.85
2023-03-18T14:10:18.462Z,0.63
2023-03-18T14:12:47.586Z,0.93
2023-03-18T14:15:15.637Z,0.75
2023-03-18T14:17:55.514Z,0.70
2023-03-18T14:20:39.307Z,0.60
2023-03-18T14:23:24.274Z,0.60
2023-03-18T14:26:08.548Z,0.90
2023-03-18T14:28:47.088Z,0.75
2023-03-18T14:31:29.965Z,0.80
2023-03-18T14:34:22.674Z,0.68
2023-03-18T14:36:52.510Z,0.80
2023-03-18T14:39:32.572Z,0.98
2023-03-18T14:42:13.623Z,0.80
2023-03-18T14:44:47.470Z,0.95
2023-03-18T14:47:38.529Z,0.98
2023-03-18T14:50:32.725Z,1.00
2023-03-18T14:53:12.319Z,0.80
2023-03-18T14:55:40.251Z,1.08
2023-03-18T14:58:16.965Z,1.23
2023-03-18T15:00:45.594Z,1.30
2023-03-18T15:03:24.853Z,1.00
2023-03-18T15:05:58.328Z,1.02
2023-03-18T15:08:46.733Z,0.90
2023-03-18T15:11:16.378Z,0.70
2023-03-18T15:13:44.897Z,1.00
2023-03-18T15:16:18.492Z,0.73
2023-03-18T15:18:46.201Z,0.90
2023-03-18T15:21:46.954Z,0.90
2023-03-18T15:24:23.016Z,0.85
2023-03-18T15:27:05.560Z,0.80
2023-03-18T15:29:43.640Z,0.70
2023-03-18T15:32:29.809Z,0.80
2023-03-18T15:35:10.700Z,0.95
2023-03-18T15:37:43.785Z,0.82
2023-03-18T15:40:37.888Z,0.90
2023-03-18T15:43:10.824Z,0.90
2023-03-18T15:45:46.996Z,0.60
2023-03-18T15:48:40.283Z,0.65
2023-03-18T15:51:23.027Z,0.90
2023-03-18T15:53:55.309Z,1.20
2023-03-18T15:56:30.231Z,0.80
2023-03-18T15:59:23.245Z,1.05
2023-03-18T16:01:50.258Z,1.20
2023-03-18T16:04:18.212Z,1.15
2023-03-18T16:06:45.202Z,0.82
2023-03-18T16:09:18.848Z,1.00
2023-03-18T16:12:00.545Z,0.88
2023-03-18T16:14:43.084Z,0.77
2023-03-18T16:17:21.700Z,0.80
2023-03-18T16:19:53.733Z,0.95
2023-03-18T16:22:21.978Z,0.80
2023-03-18T16:24:49.682Z,0.80
2023-03-18T16:27:40.779Z,0.80
2023-03-18T16:30:24.585Z,0.52
2023-03-18T16:32:52.755Z,0.75
2023-03-18T16:35:24.534Z,0.98
2023-03-18T16:37:53.029Z,0.65
2023-03-18T16:40:23.803Z,0.52
2023-03-18T16:42:52.569Z,1.00
2023-03-18T16:45:33.130Z,0.80
2023-03-18T16:48:07.210Z,0.70
2023-03-18T16:50:37.450Z,0.75
2023-03-18T16:53:27.154Z,0.70
2023-03-18T16:56:03.455Z,0.77
2023-03-18T16:58:36.447Z,0.90
2023-03-18T17:01:07.110Z,0.90
2023-03-18T17:03:35.878Z,0.98
2023-03-18T17:06:02.982Z,0.85
2023-03-18T17:08:29.949Z,0.80
2023-03-18T17:10:59.611Z,0.80
2023-03-18T17:13:32.652Z,0.85
2023-03-18T17:15:59.597Z,1.20
2023-03-18T17:18:27.685Z,1.02
2023-03-18T17:20:54.662Z,1.25
2023-03-18T17:23:26.698Z,1.23
2023-03-18T17:25:59.633Z,0.98
2023-03-18T17:28:43.556Z,1.13
2023-03-18T17:31:12.336Z,0.90
2023-03-18T17:33:40.312Z,1.20
2023-03-18T17:36:08.455Z,1.50
2023-03-18T17:38:36.319Z,0.98
2023-03-18T17:41:12.477Z,0.80
2023-03-18T17:43:40.125Z,1.02
2023-03-18T17:46:07.224Z,1.05
2023-03-18T17:48:37.109Z,1.00
2023-03-18T17:51:16.133Z,1.15
2023-03-18T17:53:56.496Z,1.02
2023-03-18T17:58:52.334Z,0.90
2023-03-18T18:01:29.143Z,1.10
2023-03-18T18:03:58.866Z,1.48
2023-03-18T18:06:31.087Z,6.88
2023-03-18T18:09:01.170Z,5.25
2023-03-18T18:11:35.721Z,2.20
2023-03-18T18:14:14.775Z,1.35
2023-03-18T18:16:41.742Z,1.30
2023-03-18T18:19:11.207Z,1.15
2023-03-18T18:21:38.430Z,0.80
2023-03-18T18:24:24.373Z,1.02
2023-03-18T18:26:51.634Z,1.17
2023-03-18T18:29:24.708Z,1.30
2023-03-18T18:31:52.844Z,0.90
2023-03-18T18:34:21.377Z,0.90
2023-03-18T18:36:50.562Z,0.98
2023-03-18T18:39:18.188Z,0.95
2023-03-18T18:41:46.261Z,1.23
2023-03-18T18:44:13.796Z,1.10
2023-03-18T18:46:41.504Z,0.90
2023-03-18T18:49:24.172Z,1.05
2023-03-18T18:51:54.630Z,1.20
2023-03-18T18:54:23.437Z,0.90
2023-03-18T18:56:52.072Z,1.42
2023-03-18T18:59:25.999Z,1.23
2023-03-18T19:01:55.296Z,1.02
2023-03-18T19:04:22.693Z,1.02
2023-03-18T19:06:52.227Z,1.35
2023-03-18T19:09:25.869Z,1.25
2023-03-18T19:11:56.128Z,1.17
2023-03-18T19:16:58.505Z,1.42
2023-03-18T19:21:58.764Z,1.30
2023-03-18T19:24:29.643Z,1.30
2023-03-18T19:29:27.249Z,1.13
2023-03-18T19:31:54.534Z,1.40
2023-03-18T19:34:23.392Z,1.50
2023-03-18T19:36:54.541Z,1.45
2023-03-18T19:39:22.627Z,1.33
2023-03-18T19:41:51.258Z,1.33
2023-03-18T19:44:25.424Z,1.23
2023-03-18T19:46:56.212Z,1.52
2023-03-18T19:49:32.669Z,1.15
2023-03-18T19:51:59.801Z,1.00
2023-03-18T19:54:36.666Z,1.00
2023-03-18T19:57:12.204Z,1.08
2023-03-18T19:59:40.053Z,1.17
2023-03-18T20:02:27.745Z,1.25
2023-03-18T20:04:58.147Z,1.77
2023-03-18T20:07:28.470Z,1.42
2023-03-18T20:09:56.016Z,1.10
2023-03-18T20:12:36.394Z,1.00
2023-03-18T20:15:05.634Z,0.90
2023-03-18T20:17:42.087Z,1.02
2023-03-18T20:20:15.863Z,1.08
2023-03-18T20:23:04.689Z,1.00
2023-03-18T20:25:34.577Z,0.80
2023-03-18T20:28:04.478Z,1.20
2023-03-18T20:30:38.785Z,0.80
2023-03-18T20:33:07.212Z,0.85
2023-03-18T20:35:41.321Z,0.90
2023-03-18T20:38:47.995Z,1.42
2023-03-18T20:41:19.818Z,1.00
2023-03-18T20:43:50.143Z,1.20
2023-03-18T20:46:18.060Z,0.88
2023-03-18T20:48:45.649Z,1.02
2023-03-18T20:51:32.060Z,1.17
2023-03-18T20:54:00.623Z,0.93
2023-03-18T20:56:32.300Z,1.15
2023-03-18T20:58:59.615Z,1.23
2023-03-18T21:01:27.531Z,1.17
2023-03-18T21:03:55.822Z,1.05
2023-03-18T21:06:23.114Z,1.00
2023-03-18T21:08:50.211Z,1.17
2023-03-18T21:11:27.044Z,1.08
2023-03-18T21:13:54.028Z,1.15
2023-03-18T21:16:21.437Z,1.17
2023-03-18T21:18:49.775Z,0.93
2023-03-18T21:21:38.178Z,1.20
2023-03-18T21:24:35.692Z,0.90
2023-03-18T21:27:05.079Z,1.17
2023-03-18T21:29:33.569Z,1.07
2023-03-18T21:32:00.878Z,0.95
2023-03-18T21:34:27.833Z,1.00
2023-03-18T21:36:54.823Z,1.10
2023-03-18T21:39:21.967Z,1.00
2023-03-18T21:41:48.913Z,1.00
2023-03-18T21:44:16.068Z,1.40
2023-03-18T21:46:43.141Z,1.08
2023-03-18T21:49:10.395Z,1.20
2023-03-18T21:51:40.173Z,1.15
2023-03-18T21:54:17.963Z,1.10
2023-03-18T21:56:44.911Z,1.20
2023-03-18T21:59:11.843Z,1.17
2023-03-18T22:01:38.913Z,1.30
2023-03-18T22:04:06.194Z,1.02
2023-03-18T22:06:33.943Z,1.08
2023-03-18T22:09:00.933Z,1.40
2023-03-18T22:11:27.975Z,1.23
2023-03-18T22:13:55.223Z,1.20
2023-03-18T22:16:22.492Z,1.20
2023-03-18T22:18:49.485Z,0.98
2023-03-18T22:21:28.308Z,1.10
2023-03-18T22:23:57.892Z,0.90
2023-03-18T22:26:24.922Z,0.75
2023-03-18T22:28:52.012Z,1.13
2023-03-18T22:31:25.696Z,1.23
2023-03-18T22:33:54.363Z,1.20
2023-03-18T22:36:22.656Z,1.42
2023-03-18T22:38:50.145Z,1.15
2023-03-18T22:41:30.260Z,1.00
2023-03-18T22:43:59.990Z,1.23
2023-03-18T22:46:28.384Z,1.77
2023-03-18T22:48:55.901Z,1.30
2023-03-18T22:51:28.241Z,1.25
2023-03-18T22:53:55.701Z,1.02
2023-03-18T22:56:23.445Z,1.20
2023-03-18T22:58:51.134Z,1.10
2023-03-18T23:01:22.936Z,1.33
2023-03-18T23:03:50.377Z,1.25
2023-03-18T23:06:23.552Z,1.25
2023-03-18T23:08:50.582Z,1.52
2023-03-18T23:11:17.998Z,1.23
2023-03-18T23:13:52.358Z,1.40
2023-03-18T23:16:23.206Z,1.60
2023-03-18T23:18:51.275Z,1.23
2023-03-18T23:21:24.723Z,1.20
2023-03-18T23:23:52.434Z,1.50
2023-03-18T23:26:20.492Z,1.15
2023-03-18T23:28:48.943Z,1.75
2023-03-18T23:31:17.122Z,1.65
2023-03-18T23:33:44.625Z,1.80
2023-03-18T23:36:11.717Z,1.35
2023-03-18T23:38:38.856Z,1.80
2023-03-18T23:41:07.273Z,1.42
2023-03-18T23:43:34.261Z,1.70
2023-03-18T23:46:02.162Z,1.65
2023-03-18T23:48:29.474Z,1.63
2023-03-18T23:50:56.550Z,1.92
2023-03-18T23:53:23.560Z,1.70
2023-03-18T23:55:50.904Z,1.30
2023-03-18T23:58:17.901Z,1.48
